ADDS METAR Data INFO
IDs: Format: Raw Decoded Include TAF

Data at: 1321 UTC 11 Dec 2017

PAUN 111256Z AUTO 31005KT 10SM FEW047 OVC060 M03/M04 A2911 RMK AO2 SLP863 T10281044 FZRANO
PAUN 111156Z AUTO 33006KT 10SM BKN065 M03/M04 A2915 RMK AO2 SLP874 T10281039 11017 21033 56041 FZRANO
PAUN 111056Z AUTO 33007KT 10SM SCT085 SCT100 M03/M04 A2918 RMK AO2 SLP884 T10331044 FZRANO
PAUN 110956Z AUTO 00000KT 10SM CLR M03/M05 A2922 RMK AO2 SLP899 T10281050 FZRANO
PAUN 110856Z AUTO 02004KT 10SM BKN100 M02/M04 A2927 RMK AO2 SLP914 T10171044 410171178 56033 FZRANO
PAUN 110756Z AUTO 05014KT 10SM OVC075 M02/M04 A2930 RMK AO2 SLP924 T10221044 FZRANO
PAUN 110656Z AUTO 08015G22KT 10SM CLR M02/M04 A2933 RMK AO2 SLP936 T10221044 FZRANO
PAUN 110556Z AUTO 08018KT 10SM SCT040 OVC080 M03/M04 A2936 RMK AO2 SLP948 60000 T10281044 11028 21050 58028 FZRANO
PAUN 110456Z AUTO 08021KT 10SM FEW028 BKN050 OVC060 M03/M05 A2940 RMK AO2 SNB09E45 SLP960 P0000 T10331050 FZRANO
PAUN 110448Z AUTO 07019KT 9SM SCT026 SCT038 OVC050 M03/M05 A2940 RMK AO2 SNB09E45 P0000 FZRANO
PAUN 110429Z AUTO 06016KT 3SM -SN BR BKN026 OVC047 M03/M05 A2941 RMK AO2 SNB09 P0000 FZRANO
PAUN 110356Z AUTO 06016KT 10SM OVC055 M03/M06 A2942 RMK AO2 SNE02 SLP968 P0000 T10331056 FZRANO
PAUN 110256Z AUTO 07018KT 10SM -SN OVC030 M04/M06 A2945 RMK AO2 SLP976 P0000 60000 T10391056 58024 FZRANO
PAUN 110230Z AUTO 04009KT 9SM -SN FEW020 OVC032 M04/M06 A2946 RMK AO2 P0000 FZRANO
PAUN 110206Z AUTO 05012KT 3SM -SN BR SCT020 BKN025 OVC037 M04/M06 A2947 RMK AO2 P0000 FZRANO
PAUN 110156Z AUTO 06012KT 4SM -SN BR SCT026 BKN038 OVC046 M04/M06 A2948 RMK AO2 SLP986 P0000 T10391056 FZRANO
PAUN 110115Z AUTO 06012KT 8SM -SN SCT012 SCT018 OVC040 M04/M06 A2949 RMK AO2 P0000 FZRANO
PAUN 110107Z AUTO 05012KT 3SM -SN BR BKN012 BKN018 OVC040 M04/M06 A2950 RMK AO2 P0000 FZRANO
PAUN 110102Z AUTO 06012KT 1 1/4SM -SN BR BKN014 OVC020 M04/M06 A2950 RMK AO2 P0000 FZRANO
PAUN 110056Z AUTO 05011KT 3/4SM -SN BR OVC014 M04/M06 A2950 RMK AO2 SNB00 SLP994 P0000 T10441056 FZRANO
PAUN 110042Z AUTO 05012KT 3/4SM -SN BR OVC014 M04/M06 A2951 RMK AO2 SNB00 P0000 FZRANO
PAUN 110036Z AUTO 06013KT 1SM -SN BR SCT009 OVC016 M04/M06 A2951 RMK AO2 SNB00 P0000 FZRANO
PAUN 110016Z AUTO 05012KT 3/4SM -SN BR FEW009 BKN012 OVC065 M04/M06 A2952 RMK AO2 SNB00 P0000 FZRANO
PAUN 110010Z AUTO 06012KT 1SM -SN BR FEW007 BKN021 OVC065 M04/M06 A2952 RMK AO2 VIS 1/2V5 SNB00 P0000 FZRANO
PAUN 110008Z AUTO 06011KT 1 3/4SM -SN BR FEW015 BKN021 OVC065 M04/M06 A2952 RMK AO2 VIS 3/4V5 SNB00 P0000 FZRANO
PAUN 102356Z AUTO 06010KT 10SM BKN021 OVC065 M05/M06 A2952 RMK AO2 SLP999 T10501061 11050 21139 58023 FZRANO
PAUN 102256Z AUTO 04009KT 10SM OVC023 M06/M07 A2954 RMK AO2 SLP009 T10561067 FZRANO
PAUN 102156Z AUTO 00000KT 10SM OVC027 M10/M11 A2956 RMK AO2 SLP014 T11001111 FZRANO
PAUN 102056Z AUTO 11005KT 10SM BKN029 OVC070 M12/M14 A2958 RMK AO2 SLP022 T11221139 51002 FZRANO
PAUN 102051Z AUTO 00000KT 10SM BKN029 OVC070 M13/M14 A2958 RMK AO2 FZRANO
PAUN 101956Z AUTO 12006KT 10SM FEW120 M13/M15 A2959 RMK AO2 SLP023 T11331150 FZRANO
PAUN 101856Z AUTO 09003KT 10SM FEW065 M14/M16 A2958 RMK AO2 SLP020 T11391156 FZRANO
PAUN 101756Z AUTO 12005KT 10SM OVC060 M13/M14 A2959 RMK AO2 SNB15E25 SLP023 P0000 60000 T11281144 11128 21178 56010 FZRANO
PAUN 101656Z AUTO 12007KT 10SM OVC060 M14/M16 A2960 RMK AO2 SLP026 T11391156 FZRANO
PAUN 101626Z AUTO 13008KT 10SM SCT004 OVC060 M14/M16 A2960 RMK AO2 FZRANO
PAUN 101556Z AUTO 13006KT 10SM OVC002 M14/M16 A2960 RMK AO2 SLP028 T11391156 FZRANO
PAUN 101456Z AUTO 12005KT 10SM OVC002 M15/M17 A2962 RMK AO2 SLP033 60000 T11501167 58009 FZRANO
PAUN 101356Z AUTO 12005KT 10SM OVC002 M16/M18 A2963 RMK AO2 SLP037 T11611178 FZRANO
PAUN 101256Z AUTO 11004KT 10SM OVC002 M17/M19 A2964 RMK AO2 SNE1158 SLP040 P0000 T11721189 FZRANO
PAUN 101156Z AUTO 12005KT 7SM -SN OVC002 M16/M18 A2964 RMK AO2 SNB21 SLP042 P0000 60000 T11561178 11111 21172 58013 FZRANO
PAUN 101152Z AUTO 12005KT 3SM -SN BR OVC002 M16/M17 A2964 RMK AO2 SNB21 P0000 FZRANO
PAUN 101148Z AUTO 13006KT 1 1/4SM -SN BR OVC002 M15/M17 A2965 RMK AO2 SNB21 P0000 FZRANO
PAUN 101130Z AUTO 10005KT 3/4SM -SN BR OVC002 M16/M17 A2965 RMK AO2 SNB21 P0000 FZRANO
PAUN 101123Z AUTO 12005KT 1 3/4SM -SN BR OVC002 M16/M17 A2966 RMK AO2 SNB21 P0000 FZRANO
PAUN 101056Z AUTO 13006KT 10SM OVC002 M16/M18 A2966 RMK AO2 SLP049 T11611178 FZRANO
PAUN 101022Z AUTO 13006KT 10SM OVC002 M17/M19 A2967 RMK AO2 FZRANO
PAUN 101004Z AUTO 12004KT 10SM BKN004 M17/M19 A2967 RMK AO2 FZRANO
PAUN 100956Z AUTO 12006KT 10SM SCT004 M17/M18 A2967 RMK AO2 SLP052 T11671183 FZRANO
PAUN 100921Z AUTO 11007KT 10SM SCT003 M16/M17 A2967 RMK AO2 FZRANO
PAUN 100856Z AUTO 13004KT 6SM BR OVC003 M14/M16 A2968 RMK AO2 SNB22E37 SLP056 P0000 60000 T11391156 410441150 56010 FZRANO
PAUN 100841Z AUTO 09005KT 9SM OVC003 M14/M16 A2969 RMK AO2 SNB22E37 P0000 FZRANO
PAUN 100834Z AUTO 12006KT 2 1/2SM -SN BR OVC003 M14/M16 A2969 RMK AO2 VIS 1/2V5 SNB22 P0000 FZRANO
PAUN 100831Z AUTO 11006KT 1SM -SN BR OVC003 M14/M15 A2969 RMK AO2 VIS 1/2V5 SNB22 P0000 FZRANO
PAUN 100824Z AUTO 11005KT 1/2SM -SN FZFG OVC003 M13/M15 A2969 RMK AO2 SNB22 P0000 FZRANO
PAUN 100814Z AUTO 12005KT 3/4SM BR OVC003 M14/M16 A2969 RMK AO2 FZRANO
PAUN 100806Z AUTO 11003KT 1 3/4SM BR OVC003 M14/M16 A2969 RMK AO2 FZRANO
PAUN 100756Z AUTO 09005KT 10SM OVC003 M15/M17 A2969 RMK AO2 SLP058 T11501167 FZRANO
PAUN 100702Z AUTO 00000KT 3SM BR OVC003 M12/M13 A2970 RMK AO2 FZRANO
PAUN 100658Z AUTO 00000KT 1 1/4SM BR OVC003 M12/M13 A2970 RMK AO2 VIS 1/2V5 FZRANO
PAUN 100656Z AUTO 07003KT 3/4SM BR OVC003 M12/M13 A2970 RMK AO2 SNE0557 SLP062 T11171128 FZRANO
PAUN 100611Z AUTO 14004KT 1/2SM FZFG OVC003 M13/M14 A2971 RMK AO2 SNE0557 FZRANO
PAUN 100601Z AUTO 10005KT 3/4SM BR OVC003 M13/M15 A2971 RMK AO2 SNE0557 FZRANO
PAUN 100556Z AUTO 12005KT 1 1/2SM -SN BR OVC003 M13/M16 A2971 RMK AO2 VIS 3/4V5 SNB0459E26B43 SLP066 P0000 60000 T11331156 11100 21139 58012 FZRANO
PAUN 100547Z AUTO 12006KT 2SM -SN BR OVC003 M13/M14 A2971 RMK AO2 VIS 3/4V5 SNB0459E26B43 P0000 FZRANO
PAUN 100456Z AUTO 12003KT 10SM OVC003 M13/M14 A2973 RMK AO2 SNE06 SLP071 P0000 T11331144 FZRANO
PAUN 100356Z AUTO 10004KT 10SM -SN OVC003 M12/M13 A2974 RMK AO2 SNB56 SLP075 P0000 T11221133 FZRANO
PAUN 100347Z AUTO 10004KT 5SM BR OVC003 M12/M13 A2974 RMK AO2 FZRANO
PAUN 100317Z AUTO 08005KT 2SM BR OVC003 M10/M11 A2974 RMK AO2 FZRANO
PAUN 100301Z AUTO 06006KT 3SM BR OVC003 M11/M12 A2975 RMK AO2 FZRANO
PAUN 100256Z AUTO 07006KT 1 1/4SM BR OVC003 M10/M11 A2975 RMK AO2 SLP078 T11001111 56013 FZRANO
PAUN 100254Z AUTO 07006KT 1SM BR OVC003 M10/M11 A2975 RMK AO2 FZRANO
PAUN 100244Z AUTO 07004KT 1 3/4SM BR OVC003 M11/M12 A2976 RMK AO2 FZRANO
PAUN 100210Z AUTO 08008KT 3SM BR OVC003 M12/M13 A2976 RMK AO2 FZRANO
PAUN 100205Z AUTO 08006KT 1 3/4SM BR OVC003 M12/M13 A2976 RMK AO2 VIS 1V3 FZRANO
PAUN 100156Z AUTO 12003KT 7SM OVC003 M12/M13 A2977 RMK AO2 SLP085 T11171128 FZRANO
PAUN 100131Z AUTO 11004KT 4SM BR OVC003 M12/M13 A2977 RMK AO2 FZRANO